sensor_id;sensor_type;location;lat;lon;timestamp;temperature;humidity
9527;DHT22;4802;51.494;6.770;2022-09-25T00:02:18;13.40;99.90
9527;DHT22;4802;51.494;6.770;2022-09-25T00:04:51;13.50;1.00
9527;DHT22;4802;51.494;6.770;2022-09-25T00:07:21;13.50;1.00
9527;DHT22;4802;51.494;6.770;2022-09-25T00:09:54;13.50;1.00
9527;DHT22;4802;51.494;6.770;2022-09-25T00:12:35;13.50;1.00
9527;DHT22;4802;51.494;6.770;2022-09-25T00:15:08;13.50;1.00
9527;DHT22;4802;51.494;6.770;2022-09-25T00:17:38;13.50;1.00
9527;DHT22;4802;51.494;6.770;2022-09-25T00:20:11;13.50;1.00
9527;DHT22;4802;51.494;6.770;2022-09-25T00:22:40;13.50;1.00
9527;DHT22;4802;51.494;6.770;2022-09-25T00:25:11;13.50;1.00
9527;DHT22;4802;51.494;6.770;2022-09-25T00:27:45;13.40;1.00
9527;DHT22;4802;51.494;6.770;2022-09-25T00:30:18;13.50;1.00
9527;DHT22;4802;51.494;6.770;2022-09-25T00:32:48;13.50;1.00
9527;DHT22;4802;51.494;6.770;2022-09-25T00:35:26;13.50;1.00
9527;DHT22;4802;51.494;6.770;2022-09-25T00:38:03;13.50;1.00
9527;DHT22;4802;51.494;6.770;2022-09-25T00:40:33;13.20;4.80
9527;DHT22;4802;51.494;6.770;2022-09-25T00:43:07;13.50;1.00
9527;DHT22;4802;51.494;6.770;2022-09-25T00:45:41;13.50;1.00
9527;DHT22;4802;51.494;6.770;2022-09-25T00:48:14;13.50;1.00
9527;DHT22;4802;51.494;6.770;2022-09-25T00:50:49;13.50;1.00
9527;DHT22;4802;51.494;6.770;2022-09-25T00:53:22;13.40;7.80
9527;DHT22;4802;51.494;6.770;2022-09-25T00:55:56;13.50;93.70
9527;DHT22;4802;51.494;6.770;2022-09-25T00:58:29;13.50;99.90
9527;DHT22;4802;51.494;6.770;2022-09-25T01:01:02;13.50;99.90
9527;DHT22;4802;51.494;6.770;2022-09-25T01:03:32;13.50;99.90
9527;DHT22;4802;51.494;6.770;2022-09-25T01:06:02;13.50;99.90
9527;DHT22;4802;51.494;6.770;2022-09-25T01:08:34;13.50;99.90
9527;DHT22;4802;51.494;6.770;2022-09-25T01:11:04;13.30;99.90
9527;DHT22;4802;51.494;6.770;2022-09-25T01:13:35;13.50;99.90
9527;DHT22;4802;51.494;6.770;2022-09-25T01:16:09;13.40;99.90
9527;DHT22;4802;51.494;6.770;2022-09-25T01:18:52;13.50;99.90
9527;DHT22;4802;51.494;6.770;2022-09-25T01:21:51;13.50;99.90
9527;DHT22;4802;51.494;6.770;2022-09-25T01:24:36;13.40;99.90
9527;DHT22;4802;51.494;6.770;2022-09-25T01:27:29;13.50;99.90
9527;DHT22;4802;51.494;6.770;2022-09-25T01:30:05;13.40;99.90
9527;DHT22;4802;51.494;6.770;2022-09-25T01:32:51;13.40;99.90
9527;DHT22;4802;51.494;6.770;2022-09-25T01:35:31;13.40;99.90
9527;DHT22;4802;51.494;6.770;2022-09-25T01:38:15;13.40;99.90
9527;DHT22;4802;51.494;6.770;2022-09-25T01:40:54;13.40;99.90
9527;DHT22;4802;51.494;6.770;2022-09-25T01:43:29;13.40;90.80
9527;DHT22;4802;51.494;6.770;2022-09-25T01:46:24;13.40;70.50
9527;DHT22;4802;51.494;6.770;2022-09-25T01:49:15;13.40;54.80
9527;DHT22;4802;51.494;6.770;2022-09-25T01:52:00;13.40;1.00
9527;DHT22;4802;51.494;6.770;2022-09-25T01:54:36;13.40;1.00
9527;DHT22;4802;51.494;6.770;2022-09-25T01:57:15;13.40;1.00
9527;DHT22;4802;51.494;6.770;2022-09-25T01:59:51;13.30;1.00
9527;DHT22;4802;51.494;6.770;2022-09-25T02:02:30;13.30;1.00
9527;DHT22;4802;51.494;6.770;2022-09-25T02:05:06;13.30;1.00
9527;DHT22;4802;51.494;6.770;2022-09-25T02:07:46;13.40;1.00
9527;DHT22;4802;51.494;6.770;2022-09-25T02:10:22;13.40;1.00
9527;DHT22;4802;51.494;6.770;2022-09-25T02:12:59;13.40;1.00
9527;DHT22;4802;51.494;6.770;2022-09-25T02:15:35;13.40;1.00
9527;DHT22;4802;51.494;6.770;2022-09-25T02:18:12;13.30;1.00
9527;DHT22;4802;51.494;6.770;2022-09-25T02:21:13;13.30;1.00
9527;DHT22;4802;51.494;6.770;2022-09-25T02:23:51;13.30;1.00
9527;DHT22;4802;51.494;6.770;2022-09-25T02:26:30;13.30;1.00
9527;DHT22;4802;51.494;6.770;2022-09-25T02:29:02;13.20;1.00
9527;DHT22;4802;51.494;6.770;2022-09-25T02:31:35;13.20;1.00
9527;DHT22;4802;51.494;6.770;2022-09-25T02:34:10;13.10;1.00
9527;DHT22;4802;51.494;6.770;2022-09-25T02:36:43;13.20;1.00
9527;DHT22;4802;51.494;6.770;2022-09-25T02:39:14;13.20;1.00
9527;DHT22;4802;51.494;6.770;2022-09-25T02:41:57;13.20;1.00
9527;DHT22;4802;51.494;6.770;2022-09-25T02:44:35;13.10;1.00
9527;DHT22;4802;51.494;6.770;2022-09-25T02:47:20;13.10;49.70
9527;DHT22;4802;51.494;6.770;2022-09-25T02:50:03;13.10;99.90
9527;DHT22;4802;51.494;6.770;2022-09-25T02:52:42;13.10;99.90
9527;DHT22;4802;51.494;6.770;2022-09-25T02:55:19;13.10;99.90
9527;DHT22;4802;51.494;6.770;2022-09-25T02:57:55;13.10;99.90
9527;DHT22;4802;51.494;6.770;2022-09-25T03:00:28;13.10;99.90
9527;DHT22;4802;51.494;6.770;2022-09-25T03:02:58;13.10;99.90
9527;DHT22;4802;51.494;6.770;2022-09-25T03:05:33;13.10;99.90
9527;DHT22;4802;51.494;6.770;2022-09-25T03:08:03;13.10;99.90
9527;DHT22;4802;51.494;6.770;2022-09-25T03:10:50;13.10;99.90
9527;DHT22;4802;51.494;6.770;2022-09-25T03:13:23;13.10;99.90
9527;DHT22;4802;51.494;6.770;2022-09-25T03:16:02;13.10;99.90
9527;DHT22;4802;51.494;6.770;2022-09-25T03:18:35;13.00;99.90
9527;DHT22;4802;51.494;6.770;2022-09-25T03:21:10;13.00;99.90
9527;DHT22;4802;51.494;6.770;2022-09-25T03:23:39;13.00;99.90
9527;DHT22;4802;51.494;6.770;2022-09-25T03:26:08;13.00;80.70
9527;DHT22;4802;51.494;6.770;2022-09-25T03:28:38;13.00;24.10
9527;DHT22;4802;51.494;6.770;2022-09-25T03:31:10;13.00;1.00
9527;DHT22;4802;51.494;6.770;2022-09-25T03:33:41;13.00;1.00
9527;DHT22;4802;51.494;6.770;2022-09-25T03:36:14;13.00;1.00
9527;DHT22;4802;51.494;6.770;2022-09-25T03:38:46;12.90;1.00
9527;DHT22;4802;51.494;6.770;2022-09-25T03:41:18;12.90;1.00
9527;DHT22;4802;51.494;6.770;2022-09-25T03:43:49;12.90;1.00
9527;DHT22;4802;51.494;6.770;2022-09-25T03:46:24;12.90;1.00
9527;DHT22;4802;51.494;6.770;2022-09-25T03:48:54;12.90;1.00
9527;DHT22;4802;51.494;6.770;2022-09-25T03:51:28;12.90;1.00
9527;DHT22;4802;51.494;6.770;2022-09-25T03:53:58;12.90;1.00
9527;DHT22;4802;51.494;6.770;2022-09-25T03:56:31;12.80;1.00
9527;DHT22;4802;51.494;6.770;2022-09-25T03:59:00;12.80;1.00
9527;DHT22;4802;51.494;6.770;2022-09-25T04:01:32;12.80;1.00
9527;DHT22;4802;51.494;6.770;2022-09-25T04:04:01;12.80;1.00
9527;DHT22;4802;51.494;6.770;2022-09-25T04:06:32;12.80;1.00
9527;DHT22;4802;51.494;6.770;2022-09-25T04:09:01;12.80;99.90
9527;DHT22;4802;51.494;6.770;2022-09-25T04:11:30;12.80;99.90
9527;DHT22;4802;51.494;6.770;2022-09-25T04:14:01;13.00;99.90
9527;DHT22;4802;51.494;6.770;2022-09-25T04:16:34;12.70;99.90
9527;DHT22;4802;51.494;6.770;2022-09-25T04:19:04;12.70;99.90
9527;DHT22;4802;51.494;6.770;2022-09-25T04:21:51;12.60;99.90
9527;DHT22;4802;51.494;6.770;2022-09-25T04:24:34;12.60;99.90
9527;DHT22;4802;51.494;6.770;2022-09-25T04:27:20;12.60;99.90
9527;DHT22;4802;51.494;6.770;2022-09-25T04:29:50;12.60;99.90
9527;DHT22;4802;51.494;6.770;2022-09-25T04:32:25;12.50;99.90
9527;DHT22;4802;51.494;6.770;2022-09-25T04:35:11;11.80;99.90
9527;DHT22;4802;51.494;6.770;2022-09-25T04:37:43;12.40;99.90
9527;DHT22;4802;51.494;6.770;2022-09-25T04:40:12;12.40;99.90
9527;DHT22;4802;51.494;6.770;2022-09-25T04:42:42;12.40;99.90
9527;DHT22;4802;51.494;6.770;2022-09-25T04:45:13;12.30;99.90
9527;DHT22;4802;51.494;6.770;2022-09-25T04:47:44;12.30;99.90
9527;DHT22;4802;51.494;6.770;2022-09-25T04:50:13;12.60;1.00
9527;DHT22;4802;51.494;6.770;2022-09-25T04:52:45;13.30;1.00
9527;DHT22;4802;51.494;6.770;2022-09-25T04:55:16;13.80;99.90
9527;DHT22;4802;51.494;6.770;2022-09-25T04:57:49;14.50;99.90
9527;DHT22;4802;51.494;6.770;2022-09-25T05:00:26;14.90;99.90
9527;DHT22;4802;51.494;6.770;2022-09-25T05:02:56;15.40;46.20
9527;DHT22;4802;51.494;6.770;2022-09-25T05:05:28;15.30;18.50
9527;DHT22;4802;51.494;6.770;2022-09-25T05:08:00;15.50;1.00
9527;DHT22;4802;51.494;6.770;2022-09-25T05:10:31;15.60;1.00
9527;DHT22;4802;51.494;6.770;2022-09-25T05:13:02;15.70;1.00
9527;DHT22;4802;51.494;6.770;2022-09-25T05:15:32;15.90;1.00
9527;DHT22;4802;51.494;6.770;2022-09-25T05:18:03;16.10;1.00
9527;DHT22;4802;51.494;6.770;2022-09-25T05:20:34;16.10;1.00
9527;DHT22;4802;51.494;6.770;2022-09-25T05:23:06;16.20;1.00
9527;DHT22;4802;51.494;6.770;2022-09-25T05:25:35;16.30;1.00
9527;DHT22;4802;51.494;6.770;2022-09-25T05:28:05;16.10;1.00
9527;DHT22;4802;51.494;6.770;2022-09-25T05:30:34;16.00;1.00
9527;DHT22;4802;51.494;6.770;2022-09-25T05:33:05;15.80;1.00
9527;DHT22;4802;51.494;6.770;2022-09-25T05:35:34;15.90;1.00
9527;DHT22;4802;51.494;6.770;2022-09-25T05:38:03;14.90;1.00
9527;DHT22;4802;51.494;6.770;2022-09-25T05:40:36;14.10;38.50
9527;DHT22;4802;51.494;6.770;2022-09-25T05:43:06;13.50;98.10
9527;DHT22;4802;51.494;6.770;2022-09-25T05:45:37;13.10;99.90
9527;DHT22;4802;51.494;6.770;2022-09-25T05:48:07;12.90;99.90
9527;DHT22;4802;51.494;6.770;2022-09-25T05:50:36;12.60;99.90
9527;DHT22;4802;51.494;6.770;2022-09-25T05:53:05;12.40;99.90
9527;DHT22;4802;51.494;6.770;2022-09-25T05:55:34;12.30;99.90
9527;DHT22;4802;51.494;6.770;2022-09-25T05:58:04;12.30;99.90
9527;DHT22;4802;51.494;6.770;2022-09-25T06:00:33;12.20;99.90
9527;DHT22;4802;51.494;6.770;2022-09-25T06:03:02;11.90;99.90
9527;DHT22;4802;51.494;6.770;2022-09-25T06:05:31;12.10;99.90
9527;DHT22;4802;51.494;6.770;2022-09-25T06:08:00;12.40;99.90
9527;DHT22;4802;51.494;6.770;2022-09-25T06:10:29;12.10;99.90
9527;DHT22;4802;51.494;6.770;2022-09-25T06:13:00;12.70;99.90
9527;DHT22;4802;51.494;6.770;2022-09-25T06:15:33;12.90;99.90
9527;DHT22;4802;51.494;6.770;2022-09-25T06:18:05;13.10;99.90
9527;DHT22;4802;51.494;6.770;2022-09-25T06:20:35;13.50;99.90
9527;DHT22;4802;51.494;6.770;2022-09-25T06:23:03;13.30;99.90
9527;DHT22;4802;51.494;6.770;2022-09-25T06:25:32;13.10;99.90
9527;DHT22;4802;51.494;6.770;2022-09-25T06:28:02;13.00;99.90
9527;DHT22;4802;51.494;6.770;2022-09-25T06:30:34;13.00;99.90
9527;DHT22;4802;51.494;6.770;2022-09-25T06:33:05;13.10;99.90
9527;DHT22;4802;51.494;6.770;2022-09-25T06:35:39;13.10;99.90
9527;DHT22;4802;51.494;6.770;2022-09-25T06:38:09;13.20;99.90
9527;DHT22;4802;51.494;6.770;2022-09-25T06:40:39;13.40;99.90
9527;DHT22;4802;51.494;6.770;2022-09-25T06:43:11;15.00;99.90
9527;DHT22;4802;51.494;6.770;2022-09-25T06:45:42;16.90;1.00
9527;DHT22;4802;51.494;6.770;2022-09-25T06:48:14;18.40;1.00
9527;DHT22;4802;51.494;6.770;2022-09-25T06:50:45;20.00;1.00
9527;DHT22;4802;51.494;6.770;2022-09-25T06:53:16;21.00;1.00
9527;DHT22;4802;51.494;6.770;2022-09-25T06:55:45;21.30;1.00
9527;DHT22;4802;51.494;6.770;2022-09-25T06:58:16;21.90;1.00
9527;DHT22;4802;51.494;6.770;2022-09-25T07:00:47;22.50;1.00
9527;DHT22;4802;51.494;6.770;2022-09-25T07:03:17;23.20;1.00
9527;DHT22;4802;51.494;6.770;2022-09-25T07:06:06;23.30;1.00
9527;DHT22;4802;51.494;6.770;2022-09-25T07:08:35;23.70;1.00
9527;DHT22;4802;51.494;6.770;2022-09-25T07:11:04;24.00;1.00
9527;DHT22;4802;51.494;6.770;2022-09-25T07:13:34;24.10;1.00
9527;DHT22;4802;51.494;6.770;2022-09-25T07:16:06;24.30;1.00
9527;DHT22;4802;51.494;6.770;2022-09-25T07:18:37;24.90;1.00
9527;DHT22;4802;51.494;6.770;2022-09-25T07:21:07;25.10;1.00
9527;DHT22;4802;51.494;6.770;2022-09-25T07:23:37;25.30;1.00
9527;DHT22;4802;51.494;6.770;2022-09-25T07:26:10;25.70;1.00
9527;DHT22;4802;51.494;6.770;2022-09-25T07:28:41;25.70;1.00
9527;DHT22;4802;51.494;6.770;2022-09-25T07:31:16;25.60;1.00
9527;DHT22;4802;51.494;6.770;2022-09-25T07:33:46;25.70;1.00
9527;DHT22;4802;51.494;6.770;2022-09-25T07:36:16;25.70;1.00
9527;DHT22;4802;51.494;6.770;2022-09-25T07:38:48;26.10;1.00
9527;DHT22;4802;51.494;6.770;2022-09-25T07:41:18;26.20;1.00
9527;DHT22;4802;51.494;6.770;2022-09-25T07:43:51;26.40;1.00
9527;DHT22;4802;51.494;6.770;2022-09-25T07:46:43;26.10;1.00
9527;DHT22;4802;51.494;6.770;2022-09-25T07:49:13;26.20;1.00
9527;DHT22;4802;51.494;6.770;2022-09-25T07:51:42;26.20;1.00
9527;DHT22;4802;51.494;6.770;2022-09-25T07:54:11;26.70;1.00
9527;DHT22;4802;51.494;6.770;2022-09-25T07:56:42;26.90;1.00
9527;DHT22;4802;51.494;6.770;2022-09-25T07:59:11;26.20;1.00
9527;DHT22;4802;51.494;6.770;2022-09-25T08:01:40;26.20;1.00
9527;DHT22;4802;51.494;6.770;2022-09-25T08:04:15;26.60;1.00
9527;DHT22;4802;51.494;6.770;2022-09-25T08:06:45;26.90;1.00
9527;DHT22;4802;51.494;6.770;2022-09-25T08:09:14;27.10;1.00
9527;DHT22;4802;51.494;6.770;2022-09-25T08:11:43;27.20;1.00
9527;DHT22;4802;51.494;6.770;2022-09-25T08:14:12;26.90;1.00
9527;DHT22;4802;51.494;6.770;2022-09-25T08:16:42;27.30;1.00
9527;DHT22;4802;51.494;6.770;2022-09-25T08:19:11;27.10;1.00
9527;DHT22;4802;51.494;6.770;2022-09-25T08:21:48;26.50;1.00
9527;DHT22;4802;51.494;6.770;2022-09-25T08:24:17;26.00;1.00
9527;DHT22;4802;51.494;6.770;2022-09-25T08:26:47;25.60;1.00
9527;DHT22;4802;51.494;6.770;2022-09-25T08:29:16;25.40;1.00
9527;DHT22;4802;51.494;6.770;2022-09-25T08:31:45;25.50;1.00
9527;DHT22;4802;51.494;6.770;2022-09-25T08:34:15;25.50;1.00
9527;DHT22;4802;51.494;6.770;2022-09-25T08:37:06;25.70;1.00
9527;DHT22;4802;51.494;6.770;2022-09-25T08:39:35;25.80;1.00
9527;DHT22;4802;51.494;6.770;2022-09-25T08:42:05;26.00;1.00
9527;DHT22;4802;51.494;6.770;2022-09-25T08:44:37;26.00;1.00
9527;DHT22;4802;51.494;6.770;2022-09-25T08:47:27;26.10;1.00
9527;DHT22;4802;51.494;6.770;2022-09-25T08:50:17;26.20;1.00
9527;DHT22;4802;51.494;6.770;2022-09-25T08:52:51;25.40;1.00
9527;DHT22;4802;51.494;6.770;2022-09-25T08:55:24;25.90;1.00
9527;DHT22;4802;51.494;6.770;2022-09-25T08:58:21;26.10;1.00
9527;DHT22;4802;51.494;6.770;2022-09-25T09:00:59;25.60;1.00
9527;DHT22;4802;51.494;6.770;2022-09-25T09:03:31;25.80;1.00
9527;DHT22;4802;51.494;6.770;2022-09-25T09:06:06;25.80;1.00
9527;DHT22;4802;51.494;6.770;2022-09-25T09:08:42;25.70;1.00
9527;DHT22;4802;51.494;6.770;2022-09-25T09:11:21;24.80;1.00
9527;DHT22;4802;51.494;6.770;2022-09-25T09:13:57;24.20;1.00
9527;DHT22;4802;51.494;6.770;2022-09-25T09:16:33;23.90;1.00
9527;DHT22;4802;51.494;6.770;2022-09-25T09:19:05;23.70;1.00
9527;DHT22;4802;51.494;6.770;2022-09-25T09:21:37;23.60;1.00
9527;DHT22;4802;51.494;6.770;2022-09-25T09:24:14;23.60;1.00
9527;DHT22;4802;51.494;6.770;2022-09-25T09:27:01;23.50;1.00
9527;DHT22;4802;51.494;6.770;2022-09-25T09:29:53;23.10;1.00
9527;DHT22;4802;51.494;6.770;2022-09-25T09:33:09;23.10;1.00
9527;DHT22;4802;51.494;6.770;2022-09-25T09:35:46;22.90;1.00
9527;DHT22;4802;51.494;6.770;2022-09-25T09:38:28;23.00;1.00
9527;DHT22;4802;51.494;6.770;2022-09-25T09:41:16;22.60;1.00
9527;DHT22;4802;51.494;6.770;2022-09-25T09:44:02;22.60;1.00
9527;DHT22;4802;51.494;6.770;2022-09-25T09:46:45;22.90;1.00
9527;DHT22;4802;51.494;6.770;2022-09-25T09:49:30;23.10;1.00
9527;DHT22;4802;51.494;6.770;2022-09-25T09:52:06;23.40;1.00
9527;DHT22;4802;51.494;6.770;2022-09-25T09:54:41;22.90;1.00
9527;DHT22;4802;51.494;6.770;2022-09-25T09:57:20;22.30;1.00
9527;DHT22;4802;51.494;6.770;2022-09-25T09:59:55;21.50;1.00
9527;DHT22;4802;51.494;6.770;2022-09-25T10:02:37;21.10;1.00
9527;DHT22;4802;51.494;6.770;2022-09-25T10:05:17;20.40;1.00
9527;DHT22;4802;51.494;6.770;2022-09-25T10:07:51;20.40;1.00
9527;DHT22;4802;51.494;6.770;2022-09-25T10:10:27;19.70;1.00
9527;DHT22;4802;51.494;6.770;2022-09-25T10:12:59;19.40;1.00
9527;DHT22;4802;51.494;6.770;2022-09-25T10:15:35;19.60;1.00
9527;DHT22;4802;51.494;6.770;2022-09-25T10:18:07;20.00;1.00
9527;DHT22;4802;51.494;6.770;2022-09-25T10:20:40;20.40;1.00
9527;DHT22;4802;51.494;6.770;2022-09-25T10:23:25;21.30;1.00
9527;DHT22;4802;51.494;6.770;2022-09-25T10:25:58;21.70;1.00
9527;DHT22;4802;51.494;6.770;2022-09-25T10:28:31;22.10;1.00
9527;DHT22;4802;51.494;6.770;2022-09-25T10:31:02;21.90;1.00
9527;DHT22;4802;51.494;6.770;2022-09-25T10:33:36;21.90;1.00
9527;DHT22;4802;51.494;6.770;2022-09-25T10:36:10;21.80;1.00
9527;DHT22;4802;51.494;6.770;2022-09-25T10:38:44;21.90;1.00
9527;DHT22;4802;51.494;6.770;2022-09-25T10:41:19;21.80;1.00
9527;DHT22;4802;51.494;6.770;2022-09-25T10:43:54;22.20;1.00
9527;DHT22;4802;51.494;6.770;2022-09-25T10:46:29;22.00;1.00
9527;DHT22;4802;51.494;6.770;2022-09-25T10:49:18;21.80;1.00
9527;DHT22;4802;51.494;6.770;2022-09-25T10:52:09;22.20;1.00
9527;DHT22;4802;51.494;6.770;2022-09-25T10:54:39;22.00;1.00
9527;DHT22;4802;51.494;6.770;2022-09-25T10:57:20;22.10;1.00
9527;DHT22;4802;51.494;6.770;2022-09-25T10:59:53;22.30;1.00
9527;DHT22;4802;51.494;6.770;2022-09-25T11:02:30;22.20;1.00
9527;DHT22;4802;51.494;6.770;2022-09-25T11:05:00;22.70;1.00
9527;DHT22;4802;51.494;6.770;2022-09-25T11:07:32;22.70;1.00
9527;DHT22;4802;51.494;6.770;2022-09-25T11:10:04;22.20;1.00
9527;DHT22;4802;51.494;6.770;2022-09-25T11:12:35;21.60;1.00
9527;DHT22;4802;51.494;6.770;2022-09-25T11:15:17;21.10;1.00
9527;DHT22;4802;51.494;6.770;2022-09-25T11:17:49;20.80;1.00
9527;DHT22;4802;51.494;6.770;2022-09-25T11:20:24;20.80;1.00
9527;DHT22;4802;51.494;6.770;2022-09-25T11:23:25;21.30;1.00
9527;DHT22;4802;51.494;6.770;2022-09-25T11:26:00;21.40;1.00
9527;DHT22;4802;51.494;6.770;2022-09-25T11:28:41;21.30;1.00
9527;DHT22;4802;51.494;6.770;2022-09-25T11:31:22;21.70;1.00
9527;DHT22;4802;51.494;6.770;2022-09-25T11:33:58;22.00;1.00
9527;DHT22;4802;51.494;6.770;2022-09-25T11:36:37;22.30;1.00
9527;DHT22;4802;51.494;6.770;2022-09-25T11:39:16;22.20;1.00
9527;DHT22;4802;51.494;6.770;2022-09-25T11:42:08;21.80;1.00
9527;DHT22;4802;51.494;6.770;2022-09-25T11:44:45;22.20;1.00
9527;DHT22;4802;51.494;6.770;2022-09-25T11:47:28;22.30;1.00
9527;DHT22;4802;51.494;6.770;2022-09-25T11:50:00;22.40;1.00
9527;DHT22;4802;51.494;6.770;2022-09-25T11:52:37;22.70;1.00
9527;DHT22;4802;51.494;6.770;2022-09-25T11:55:39;23.20;1.00
9527;DHT22;4802;51.494;6.770;2022-09-25T11:58:35;23.20;1.00
9527;DHT22;4802;51.494;6.770;2022-09-25T12:01:18;22.80;1.00
9527;DHT22;4802;51.494;6.770;2022-09-25T12:07:30;22.60;1.00
9527;DHT22;4802;51.494;6.770;2022-09-25T12:10:29;22.20;1.00
9527;DHT22;4802;51.494;6.770;2022-09-25T12:13:06;22.60;1.00
9527;DHT22;4802;51.494;6.770;2022-09-25T12:15:55;22.60;1.00
9527;DHT22;4802;51.494;6.770;2022-09-25T12:18:45;22.60;1.00
9527;DHT22;4802;51.494;6.770;2022-09-25T12:21:22;22.00;1.00
9527;DHT22;4802;51.494;6.770;2022-09-25T12:24:08;22.20;1.00
9527;DHT22;4802;51.494;6.770;2022-09-25T12:26:47;21.80;1.00
9527;DHT22;4802;51.494;6.770;2022-09-25T12:29:31;21.70;1.00
9527;DHT22;4802;51.494;6.770;2022-09-25T12:32:13;21.30;1.00
9527;DHT22;4802;51.494;6.770;2022-09-25T12:35:06;20.90;1.00
9527;DHT22;4802;51.494;6.770;2022-09-25T12:37:45;21.00;1.00
9527;DHT22;4802;51.494;6.770;2022-09-25T12:40:25;21.20;1.00
9527;DHT22;4802;51.494;6.770;2022-09-25T12:42:59;21.60;1.00
9527;DHT22;4802;51.494;6.770;2022-09-25T12:45:36;21.80;1.00
9527;DHT22;4802;51.494;6.770;2022-09-25T12:48:11;22.00;1.00
9527;DHT22;4802;51.494;6.770;2022-09-25T12:50:48;22.20;1.00
9527;DHT22;4802;51.494;6.770;2022-09-25T12:53:30;22.30;1.00
9527;DHT22;4802;51.494;6.770;2022-09-25T12:56:07;22.10;1.00
9527;DHT22;4802;51.494;6.770;2022-09-25T12:58:48;21.90;1.00
9527;DHT22;4802;51.494;6.770;2022-09-25T13:01:22;22.00;1.00
9527;DHT22;4802;51.494;6.770;2022-09-25T13:04:09;22.10;1.00
9527;DHT22;4802;51.494;6.770;2022-09-25T13:06:47;22.00;1.00
9527;DHT22;4802;51.494;6.770;2022-09-25T13:09:29;21.80;1.00
9527;DHT22;4802;51.494;6.770;2022-09-25T13:12:03;21.90;1.00
9527;DHT22;4802;51.494;6.770;2022-09-25T13:14:40;22.00;1.00
9527;DHT22;4802;51.494;6.770;2022-09-25T13:17:13;22.00;1.00
9527;DHT22;4802;51.494;6.770;2022-09-25T13:19:44;21.80;1.00
9527;DHT22;4802;51.494;6.770;2022-09-25T13:22:18;21.80;1.00
9527;DHT22;4802;51.494;6.770;2022-09-25T13:24:52;21.80;1.00
9527;DHT22;4802;51.494;6.770;2022-09-25T13:27:28;21.70;1.00
9527;DHT22;4802;51.494;6.770;2022-09-25T13:30:04;21.70;1.00
9527;DHT22;4802;51.494;6.770;2022-09-25T13:32:47;21.80;1.00
9527;DHT22;4802;51.494;6.770;2022-09-25T13:35:19;21.80;1.00
9527;DHT22;4802;51.494;6.770;2022-09-25T13:37:54;21.60;1.00
9527;DHT22;4802;51.494;6.770;2022-09-25T13:40:48;21.50;1.00
9527;DHT22;4802;51.494;6.770;2022-09-25T13:43:22;21.50;1.00
9527;DHT22;4802;51.494;6.770;2022-09-25T13:49:33;21.50;1.00
9527;DHT22;4802;51.494;6.770;2022-09-25T13:52:29;21.40;1.00
9527;DHT22;4802;51.494;6.770;2022-09-25T13:55:14;21.40;1.00
9527;DHT22;4802;51.494;6.770;2022-09-25T13:58:11;21.30;1.00
9527;DHT22;4802;51.494;6.770;2022-09-25T14:00:54;21.20;1.00
9527;DHT22;4802;51.494;6.770;2022-09-25T14:03:36;21.50;1.00
9527;DHT22;4802;51.494;6.770;2022-09-25T14:06:15;21.10;1.00
9527;DHT22;4802;51.494;6.770;2022-09-25T14:08:58;21.10;1.00
9527;DHT22;4802;51.494;6.770;2022-09-25T14:11:39;20.90;1.00
9527;DHT22;4802;51.494;6.770;2022-09-25T14:14:25;20.80;1.00
9527;DHT22;4802;51.494;6.770;2022-09-25T14:17:00;20.50;1.00
9527;DHT22;4802;51.494;6.770;2022-09-25T14:19:38;20.30;1.00
9527;DHT22;4802;51.494;6.770;2022-09-25T14:22:18;20.20;1.00
9527;DHT22;4802;51.494;6.770;2022-09-25T14:24:49;19.70;1.00
9527;DHT22;4802;51.494;6.770;2022-09-25T14:27:23;19.60;1.00
9527;DHT22;4802;51.494;6.770;2022-09-25T14:30:10;19.40;1.00
9527;DHT22;4802;51.494;6.770;2022-09-25T14:32:52;19.30;1.00
9527;DHT22;4802;51.494;6.770;2022-09-25T14:35:38;19.10;1.00
9527;DHT22;4802;51.494;6.770;2022-09-25T14:38:46;18.90;1.00
9527;DHT22;4802;51.494;6.770;2022-09-25T14:44:38;18.60;1.00
9527;DHT22;4802;51.494;6.770;2022-09-25T14:47:13;18.50;1.00
9527;DHT22;4802;51.494;6.770;2022-09-25T14:49:45;18.40;1.00
9527;DHT22;4802;51.494;6.770;2022-09-25T14:52:22;18.40;1.00
9527;DHT22;4802;51.494;6.770;2022-09-25T14:54:55;18.50;1.00
9527;DHT22;4802;51.494;6.770;2022-09-25T14:57:29;18.50;1.00
9527;DHT22;4802;51.494;6.770;2022-09-25T15:00:15;18.50;1.00
9527;DHT22;4802;51.494;6.770;2022-09-25T15:02:53;18.60;1.00
9527;DHT22;4802;51.494;6.770;2022-09-25T15:05:31;18.70;1.00
9527;DHT22;4802;51.494;6.770;2022-09-25T15:08:19;18.70;1.00
9527;DHT22;4802;51.494;6.770;2022-09-25T15:11:00;18.40;1.00
9527;DHT22;4802;51.494;6.770;2022-09-25T15:13:31;18.60;1.00
9527;DHT22;4802;51.494;6.770;2022-09-25T15:16:03;18.60;1.00
9527;DHT22;4802;51.494;6.770;2022-09-25T15:18:59;18.70;1.00
9527;DHT22;4802;51.494;6.770;2022-09-25T15:21:30;18.70;1.00
9527;DHT22;4802;51.494;6.770;2022-09-25T15:24:14;18.60;1.00
9527;DHT22;4802;51.494;6.770;2022-09-25T15:26:49;18.50;1.00
9527;DHT22;4802;51.494;6.770;2022-09-25T15:29:22;18.60;1.00
9527;DHT22;4802;51.494;6.770;2022-09-25T15:31:52;18.60;1.00
9527;DHT22;4802;51.494;6.770;2022-09-25T15:34:30;18.30;1.00
9527;DHT22;4802;51.494;6.770;2022-09-25T15:37:18;18.60;1.00
9527;DHT22;4802;51.494;6.770;2022-09-25T15:39:53;18.60;1.00
9527;DHT22;4802;51.494;6.770;2022-09-25T15:42:29;18.60;1.00
9527;DHT22;4802;51.494;6.770;2022-09-25T15:47:56;18.50;1.00
9527;DHT22;4802;51.494;6.770;2022-09-25T15:50:42;18.30;1.00
9527;DHT22;4802;51.494;6.770;2022-09-25T15:53:29;18.10;1.00
9527;DHT22;4802;51.494;6.770;2022-09-25T15:56:11;18.10;1.00
9527;DHT22;4802;51.494;6.770;2022-09-25T15:58:59;18.10;1.00
9527;DHT22;4802;51.494;6.770;2022-09-25T16:01:31;18.00;1.00
9527;DHT22;4802;51.494;6.770;2022-09-25T16:04:21;17.90;1.00
9527;DHT22;4802;51.494;6.770;2022-09-25T16:07:34;17.80;1.00
9527;DHT22;4802;51.494;6.770;2022-09-25T16:10:27;17.80;1.00
9527;DHT22;4802;51.494;6.770;2022-09-25T16:12:57;17.70;1.00
9527;DHT22;4802;51.494;6.770;2022-09-25T16:15:51;17.70;1.00
9527;DHT22;4802;51.494;6.770;2022-09-25T16:18:30;17.30;1.00
9527;DHT22;4802;51.494;6.770;2022-09-25T16:21:21;17.40;1.00
9527;DHT22;4802;51.494;6.770;2022-09-25T16:24:04;17.50;1.00
9527;DHT22;4802;51.494;6.770;2022-09-25T16:26:38;17.50;1.00
9527;DHT22;4802;51.494;6.770;2022-09-25T16:29:18;17.30;1.00
9527;DHT22;4802;51.494;6.770;2022-09-25T16:31:49;17.30;1.00
9527;DHT22;4802;51.494;6.770;2022-09-25T16:34:25;17.30;1.00
9527;DHT22;4802;51.494;6.770;2022-09-25T16:36:58;17.20;1.00
9527;DHT22;4802;51.494;6.770;2022-09-25T16:39:33;17.10;1.00
9527;DHT22;4802;51.494;6.770;2022-09-25T16:42:28;17.10;1.00
9527;DHT22;4802;51.494;6.770;2022-09-25T16:45:02;17.00;1.00
9527;DHT22;4802;51.494;6.770;2022-09-25T16:47:33;17.00;1.00
9527;DHT22;4802;51.494;6.770;2022-09-25T16:50:03;17.00;1.00
9527;DHT22;4802;51.494;6.770;2022-09-25T16:52:33;17.00;1.00
9527;DHT22;4802;51.494;6.770;2022-09-25T16:55:17;17.10;1.00
9527;DHT22;4802;51.494;6.770;2022-09-25T16:57:48;17.40;1.00
9527;DHT22;4802;51.494;6.770;2022-09-25T17:00:21;17.00;1.00
9527;DHT22;4802;51.494;6.770;2022-09-25T17:02:52;17.10;1.00
9527;DHT22;4802;51.494;6.770;2022-09-25T17:05:25;16.90;1.00
9527;DHT22;4802;51.494;6.770;2022-09-25T17:07:56;16.80;1.00
9527;DHT22;4802;51.494;6.770;2022-09-25T17:10:29;16.80;1.00
9527;DHT22;4802;51.494;6.770;2022-09-25T17:13:00;16.70;1.00
9527;DHT22;4802;51.494;6.770;2022-09-25T17:15:33;16.50;1.00
9527;DHT22;4802;51.494;6.770;2022-09-25T17:18:10;16.50;1.00
9527;DHT22;4802;51.494;6.770;2022-09-25T17:20:49;16.70;1.00
9527;DHT22;4802;51.494;6.770;2022-09-25T17:23:23;16.60;1.00
9527;DHT22;4802;51.494;6.770;2022-09-25T17:25:58;16.50;1.00
9527;DHT22;4802;51.494;6.770;2022-09-25T17:28:30;16.30;1.00